Observation data for Reese Center on 11/14/2019      Previous  Date  Next       Current Mesonet Observations  Soil Data  Daily Summary Page  Observations in Plain Language
KREE 140600Z 35009KT 02/M01 A3008 RMK A01 T00241009  RH  080%=      5-min Rain = 0
KREE 140605Z 35009KT 02/M01 A3008 RMK A01 T00211011  RH  080%=      5-min Rain = 0
KREE 140610Z 34009KT 02/M01 A3008 RMK A01 T00181013  RH  081%=      5-min Rain = 0
KREE 140615Z 34009KT 02/M02 A3008 RMK A01 T00161016  RH  081%=      5-min Rain = 0
KREE 140620Z 35009KT 01/M02 A3009 RMK A01 T00141018  RH  080%=      5-min Rain = 0
KREE 140625Z 35010KT 01/M02 A3009 RMK A01 T00131020  RH  079%=      5-min Rain = 0
KREE 140630Z 35010KT 01/M02 A3009 RMK A01 T00141022  RH  078%=      5-min Rain = 0
KREE 140635Z 35009KT 01/M02 A3009 RMK A01 T00131023  RH  078%=      5-min Rain = 0
KREE 140640Z 35009KT 01/M02 A3009 RMK A01 T00111023  RH  078%=      5-min Rain = 0
KREE 140645Z 35009KT 01/M02 A3009 RMK A01 T00101024  RH  079%=      5-min Rain = 0
KREE 140650Z 35008KT 01/M02 A301 RMK A01 T00091024  RH  080%=      5-min Rain = 0
KREE 140655Z 35009KT 01/M02 A301 RMK A01 T00091023  RH  080%=      5-min Rain = 0
KREE 140700Z 35009KT 01/M02 A301 RMK A01 T00101022  RH  080%=      5-min Rain = 0
KREE 140705Z 35009KT 01/M02 A301 RMK A01 T00101022  RH  080%=      5-min Rain = 0
KREE 140710Z 35009KT 01/M02 A301 RMK A01 T00101021  RH  080%=      5-min Rain = 0
KREE 140715Z 36008KT 01/M02 A301 RMK A01 T00111020  RH  081%=      5-min Rain = 0
KREE 140720Z 36008KT 01/M02 A3011 RMK A01 T00131019  RH  080%=      5-min Rain = 0
KREE 140725Z 36008KT 01/M02 A3011 RMK A01 T00101022  RH  080%=      5-min Rain = 0
KREE 140730Z 35007KT 01/M02 A3011 RMK A01 T00051024  RH  081%=      5-min Rain = 0
KREE 140735Z 36007KT 00/M03 A3012 RMK A01 T00031025  RH  083%=      5-min Rain = 0
KREE 140740Z 36006KT 00/M03 A3012 RMK A01 T00021025  RH  083%=      5-min Rain = 0
KREE 140745Z 00006KT 00/M03 A3012 RMK A01 T00031025  RH  083%=      5-min Rain = 0
KREE 140750Z 00006KT 00/M02 A3013 RMK A01 T00031024  RH  083%=      5-min Rain = 0
KREE 140755Z 00007KT 00/M02 A3013 RMK A01 T00041023  RH  083%=      5-min Rain = 0
KREE 140800Z 00007KT 01/M02 A3013 RMK A01 T00061022  RH  082%=      5-min Rain = 0
KREE 140805Z 35007KT 00/M02 A3013 RMK A01 T00041024  RH  082%=      5-min Rain = 0
KREE 140810Z 35007KT 00/M03 A3014 RMK A01 T00031025  RH  083%=      5-min Rain = 0
KREE 140815Z 35008KT 00/M02 A3014 RMK A01 T00031024  RH  083%=      5-min Rain = 0
KREE 140820Z 36008KT 01/M02 A3014 RMK A01 T00051023  RH  082%=      5-min Rain = 0
KREE 140825Z 01008KT 01/M02 A3014 RMK A01 T00091023  RH  080%=      5-min Rain = 0
KREE 140830Z 01008KT 01/M03 A3014 RMK A01 T00101025  RH  078%=      5-min Rain = 0
KREE 140835Z 01008KT 01/M03 A3015 RMK A01 T00081027  RH  078%=      5-min Rain = 0
KREE 140840Z 01008KT 01/M03 A3015 RMK A01 T00081028  RH  078%=      5-min Rain = 0
KREE 140845Z 01007KT 01/M03 A3015 RMK A01 T00081030  RH  077%=      5-min Rain = 0
KREE 140850Z 01007KT 01/M03 A3015 RMK A01 T00071031  RH  076%=      5-min Rain = 0
KREE 140855Z 01006KT 01/M03 A3016 RMK A01 T00081032  RH  075%=      5-min Rain = 0
KREE 140900Z 01007KT 01/M03 A3016 RMK A01 T00081034  RH  074%=      5-min Rain = 0
KREE 140905Z 01007KT 01/M04 A3016 RMK A01 T00081035  RH  074%=      5-min Rain = 0
KREE 140910Z 01008KT 01/M04 A3016 RMK A01 T00081035  RH  074%=      5-min Rain = 0
KREE 140915Z 01009KT 01/M04 A3016 RMK A01 T00071036  RH  074%=      5-min Rain = 0
KREE 140920Z 01009KT 01/M04 A3017 RMK A01 T00081037  RH  073%=      5-min Rain = 0
KREE 140925Z 01009KT 01/M04 A3017 RMK A01 T00081038  RH  072%=      5-min Rain = 0
KREE 140930Z 00010KT 01/M04 A3017 RMK A01 T00081038  RH  072%=      5-min Rain = 0
KREE 140935Z 01010KT 01/M04 A3017 RMK A01 T00081039  RH  072%=      5-min Rain = 0
KREE 140940Z 01010KT 01/M04 A3017 RMK A01 T00061040  RH  072%=      5-min Rain = 0
KREE 140945Z 00009KT 01/M04 A3017 RMK A01 T00051040  RH  072%=      5-min Rain = 0
KREE 140950Z 00009KT 01/M04 A3017 RMK A01 T00071040  RH  072%=      5-min Rain = 0
KREE 140955Z 01008KT 01/M04 A3018 RMK A01 T00071041  RH  071%=      5-min Rain = 0
KREE 141000Z 01007KT 01/M04 A3018 RMK A01 T00051042  RH  071%=      5-min Rain = 0
KREE 141005Z 01007KT 00/M04 A3018 RMK A01 T00041043  RH  071%=      5-min Rain = 0
KREE 141010Z 01007KT 00/M04 A3018 RMK A01 T00011044  RH  072%=      5-min Rain = 0
KREE 141015Z 01007KT 00/05 A3019 RMK A01 T00-00-45  RH  073%=      5-min Rain = 0
KREE 141020Z 01007KT M00/M05 A3019 RMK A01 T10011045  RH  073%=      5-min Rain = 0
KREE 141025Z 01008KT M00/M05 A3019 RMK A01 T10011045  RH  073%=      5-min Rain = 0
KREE 141030Z 01008KT M00/M05 A3019 RMK A01 T10021045  RH  073%=      5-min Rain = 0
KREE 141035Z 01008KT M00/M04 A3019 RMK A01 T10011044  RH  074%=      5-min Rain = 0
KREE 141040Z 02008KT M00/M04 A3019 RMK A01 T10021044  RH  074%=      5-min Rain = 0
KREE 141045Z 02009KT M00/M04 A3019 RMK A01 T10021043  RH  074%=      5-min Rain = 0
KREE 141050Z 02010KT 00/04 A3019 RMK A01 T00-00-42  RH  074%=      5-min Rain = 0
KREE 141055Z 02010KT 00/M04 A3019 RMK A01 T00011041  RH  074%=      5-min Rain = 0
KREE 141100Z 02009KT 00/M04 A3019 RMK A01 T00021041  RH  074%=      5-min Rain = 0
KREE 141105Z 02009KT 00/M04 A302 RMK A01 T00031039  RH  074%=      5-min Rain = 0
KREE 141110Z 02009KT 01/M04 A302 RMK A01 T00061037  RH  073%=      5-min Rain = 0
KREE 141115Z 02010KT 01/M04 A302 RMK A01 T00091037  RH  073%=      5-min Rain = 0
KREE 141120Z 02010KT 01/M04 A302 RMK A01 T00091037  RH  072%=      5-min Rain = 0
KREE 141125Z 03009KT 01/M04 A302 RMK A01 T00091037  RH  072%=      5-min Rain = 0
KREE 141130Z 02009KT 01/M04 A3021 RMK A01 T00081037  RH  072%=      5-min Rain = 0
KREE 141135Z 02008KT 01/M04 A3021 RMK A01 T00071037  RH  073%=      5-min Rain = 0
KREE 141140Z 02009KT 01/M04 A3021 RMK A01 T00071037  RH  073%=      5-min Rain = 0
KREE 141145Z 02008KT 01/M04 A3021 RMK A01 T00061037  RH  073%=      5-min Rain = 0
KREE 141150Z 02009KT 01/M04 A3021 RMK A01 T00071037  RH  073%=      5-min Rain = 0
KREE 141155Z 02009KT 01/M04 A3022 RMK A01 T00061037  RH  074%=      5-min Rain = 0
KREE 141200Z 02008KT 01/M04 A3022 RMK A01 T00061037  RH  074%=      5-min Rain = 0
KREE 141205Z 02009KT 01/M04 A3022 RMK A01 T00061037  RH  074%=      5-min Rain = 0
KREE 141210Z 02009KT 01/M04 A3022 RMK A01 T00061037  RH  074%=      5-min Rain = 0
KREE 141215Z 03008KT 01/M04 A3023 RMK A01 T00071037  RH  073%=      5-min Rain = 0
KREE 141220Z 03008KT 01/M04 A3023 RMK A01 T00071037  RH  073%=      5-min Rain = 0
KREE 141225Z 03007KT 01/M04 A3024 RMK A01 T00061037  RH  074%=      5-min Rain = 0
KREE 141230Z 03006KT 01/M04 A3024 RMK A01 T00051038  RH  074%=      5-min Rain = 0
KREE 141235Z 03006KT 00/M04 A3025 RMK A01 T00031038  RH  075%=      5-min Rain = 0
KREE 141240Z 03006KT 00/M04 A3025 RMK A01 T00011040  RH  075%=      5-min Rain = 0
KREE 141245Z 02006KT M01/M04 A3025 RMK A01 T10061043  RH  077%=      5-min Rain = 0
KREE 141250Z 02006KT M01/M05 A3026 RMK A01 T10111045  RH  079%=      5-min Rain = 0
KREE 141255Z 02006KT M01/M04 A3026 RMK A01 T10131044  RH  080%=      5-min Rain = 0
KREE 141300Z 01007KT M01/M04 A3027 RMK A01 T10141044  RH  081%=      5-min Rain = 0
KREE 141305Z 01006KT M01/M04 A3027 RMK A01 T10131042  RH  082%=      5-min Rain = 0
KREE 141310Z 00005KT M02/M05 A3028 RMK A01 T10151045  RH  081%=      5-min Rain = 0
KREE 141315Z 00006KT M02/M05 A3028 RMK A01 T10161045  RH  082%=      5-min Rain = 0
KREE 141320Z 00006KT M02/M05 A3028 RMK A01 T10171046  RH  082%=      5-min Rain = 0
KREE 141325Z 00006KT M02/M05 A3029 RMK A01 T10181045  RH  083%=      5-min Rain = 0
KREE 141330Z 01006KT M02/M04 A3029 RMK A01 T10151042  RH  083%=      5-min Rain = 0
KREE 141335Z 01007KT M01/M04 A3029 RMK A01 T10131041  RH  082%=      5-min Rain = 0
KREE 141340Z 01008KT M01/M04 A3029 RMK A01 T10121040  RH  082%=      5-min Rain = 0
KREE 141345Z 01007KT M01/M04 A3029 RMK A01 T10101038  RH  082%=      5-min Rain = 0
KREE 141350Z 01007KT M01/M04 A303 RMK A01 T10081037  RH  082%=      5-min Rain = 0
KREE 141355Z 00006KT M01/M03 A3031 RMK A01 T10051034  RH  082%=      5-min Rain = 0
KREE 141400Z 01006KT 00/03 A3031 RMK A01 T00-00-30  RH  081%=      5-min Rain = 0
KREE 141405Z 01005KT 01/M03 A3031 RMK A01 T00051027  RH  080%=      5-min Rain = 0
KREE 141410Z 02005KT 01/M03 A3032 RMK A01 T00101025  RH  078%=      5-min Rain = 0
KREE 141415Z 02005KT 02/M02 A3032 RMK A01 T00151024  RH  076%=      5-min Rain = 0
KREE 141420Z 02006KT 02/M02 A3032 RMK A01 T00181023  RH  075%=      5-min Rain = 0
KREE 141425Z 02007KT 02/M02 A3033 RMK A01 T00221021  RH  074%=      5-min Rain = 0
KREE 141430Z 02007KT 03/M02 A3033 RMK A01 T00261019  RH  073%=      5-min Rain = 0
KREE 141435Z 03008KT 03/M02 A3033 RMK A01 T00291018  RH  072%=      5-min Rain = 0
KREE 141440Z 03008KT 03/M02 A3034 RMK A01 T00321017  RH  071%=      5-min Rain = 0
KREE 141445Z 03008KT 03/M02 A3034 RMK A01 T00341017  RH  070%=      5-min Rain = 0
KREE 141450Z 04009KT 04/M02 A3034 RMK A01 T00351018  RH  069%=      5-min Rain = 0
KREE 141455Z 05008KT 04/M02 A3034 RMK A01 T00381016  RH  068%=      5-min Rain = 0
KREE 141500Z 05009KT 04/M02 A3035 RMK A01 T00411015  RH  067%=      5-min Rain = 0
KREE 141505Z 05010KT 04/M01 A3035 RMK A01 T00441014  RH  067%=      5-min Rain = 0
KREE 141510Z 06012G17KT 05/M01 A3035 RMK A01 T00461012  RH  067%=      5-min Rain = 0
KREE 141515Z 06012G17KT 05/M01 A3036 RMK A01 T00471011  RH  066%=      5-min Rain = 0
KREE 141520Z 06012KT 05/M01 A3036 RMK A01 T00471011  RH  067%=      5-min Rain = 0
KREE 141525Z 05012G17KT 05/M01 A3036 RMK A01 T00491009  RH  067%=      5-min Rain = 0
KREE 141530Z 06013G18KT 05/M01 A3036 RMK A01 T00521007  RH  067%=      5-min Rain = 0
KREE 141535Z 06014KT 05/M01 A3037 RMK A01 T00521006  RH  067%=      5-min Rain = 0
KREE 141540Z 06012KT 06/M01 A3037 RMK A01 T00551005  RH  066%=      5-min Rain = 0
KREE 141545Z 07012KT 06/M00 A3037 RMK A01 T00581004  RH  065%=      5-min Rain = 0
KREE 141550Z 06014G19KT 06/M00 A3037 RMK A01 T00591004  RH  065%=      5-min Rain = 0
KREE 141555Z 06014KT 06/M00 A3037 RMK A01 T00591004  RH  064%=      5-min Rain = 0
KREE 141600Z 06014KT 06/M00 A3038 RMK A01 T00621004  RH  063%=      5-min Rain = 0
KREE 141605Z 06014KT 06/M01 A3038 RMK A01 T00621005  RH  063%=      5-min Rain = 0
KREE 141610Z 06015KT 07/M00 A3038 RMK A01 T00661003  RH  062%=      5-min Rain = 0
KREE 141615Z 06014G19KT 07/M00 A3039 RMK A01 T00671002  RH  062%=      5-min Rain = 0
KREE 141620Z 07015KT 07/M00 A3039 RMK A01 T00691002  RH  061%=      5-min Rain = 0
KREE 141625Z 07014KT 07/00 A3039 RMK A01 T00720000  RH  061%=      5-min Rain = 0
KREE 141630Z 05015KT 07/M00 A3039 RMK A01 T00711003  RH  060%=      5-min Rain = 0
KREE 141635Z 06015G20KT 07/00 A3039 RMK A01 T007400-0  RH  060%=      5-min Rain = 0
KREE 141640Z 06014G20KT 08/00 A3039 RMK A01 T00770000  RH  059%=      5-min Rain = 0
KREE 141645Z 06015KT 08/M00 A3039 RMK A01 T00781002  RH  058%=      5-min Rain = 0
KREE 141650Z 05015G20KT 08/M00 A3039 RMK A01 T00771003  RH  058%=      5-min Rain = 0
KREE 141655Z 05016G21KT 08/M00 A3039 RMK A01 T00791004  RH  056%=      5-min Rain = 0
KREE 141700Z 05017KT 08/M01 A304 RMK A01 T00801005  RH  056%=      5-min Rain = 0
KREE 141705Z 04017KT 08/M01 A304 RMK A01 T00781007  RH  056%=      5-min Rain = 0
KREE 141710Z 05015G20KT 08/M01 A304 RMK A01 T00791006  RH  056%=      5-min Rain = 0
KREE 141715Z 06015KT 08/M01 A304 RMK A01 T00831005  RH  055%=      5-min Rain = 0
KREE 141720Z 06012KT 09/M00 A304 RMK A01 T00861004  RH  054%=      5-min Rain = 0
KREE 141725Z 06016G22KT 09/M01 A304 RMK A01 T00861008  RH  052%=      5-min Rain = 0
KREE 141730Z 06013G21KT 09/M01 A304 RMK A01 T00901005  RH  052%=      5-min Rain = 0
KREE 141735Z 07013G19KT 09/M01 A304 RMK A01 T00911008  RH  051%=      5-min Rain = 0
KREE 141740Z 05014G19KT 09/M01 A304 RMK A01 T00911008  RH  050%=      5-min Rain = 0
KREE 141745Z 07014KT 09/M01 A304 RMK A01 T00931009  RH  049%=      5-min Rain = 0
KREE 141750Z 07015KT 09/M01 A304 RMK A01 T00921012  RH  049%=      5-min Rain = 0
KREE 141755Z 06013G18KT 09/M01 A304 RMK A01 T00901012  RH  049%=      5-min Rain = 0
KREE 141800Z 07015G20KT 09/M01 A3039 RMK A01 T00921014  RH  048%=      5-min Rain = 0
KREE 141805Z 08015G20KT 09/M01 A3039 RMK A01 T00931014  RH  047%=      5-min Rain = 0
KREE 141810Z 07013G18KT 10/M01 A3039 RMK A01 T00971013  RH  047%=      5-min Rain = 0
KREE 141815Z 07013G19KT 10/M01 A3039 RMK A01 T00971014  RH  046%=      5-min Rain = 0
KREE 141820Z 08012KT 10/M01 A3039 RMK A01 T00991013  RH  046%=      5-min Rain = 0
KREE 141825Z 06011KT 10/M01 A3039 RMK A01 T01011014  RH  045%=      5-min Rain = 0
KREE 141830Z 07011G17KT 11/M01 A3038 RMK A01 T01051012  RH  045%=      5-min Rain = 0
KREE 141835Z 05009G15KT 10/M02 A3038 RMK A01 T01011015  RH  045%=      5-min Rain = 0
KREE 141840Z 08012G19KT 10/M01 A3038 RMK A01 T01031012  RH  045%=      5-min Rain = 0
KREE 141845Z 08011KT 10/M02 A3038 RMK A01 T01011015  RH  045%=      5-min Rain = 0
KREE 141850Z 08012KT 10/M01 A3038 RMK A01 T01001014  RH  045%=      5-min Rain = 0
KREE 141855Z 06011G16KT 10/M01 A3038 RMK A01 T01021013  RH  045%=      5-min Rain = 0
KREE 141900Z 07011KT 10/M01 A3037 RMK A01 T01021014  RH  045%=      5-min Rain = 0
KREE 141905Z 06011KT 10/M01 A3037 RMK A01 T01041014  RH  044%=      5-min Rain = 0
KREE 141910Z 07008G14KT 10/M01 A3037 RMK A01 T01041013  RH  045%=      5-min Rain = 0
KREE 141915Z 07013G18KT 11/M02 A3037 RMK A01 T01061015  RH  044%=      5-min Rain = 0
KREE 141920Z 07009KT 11/M01 A3037 RMK A01 T01061014  RH  044%=      5-min Rain = 0
KREE 141925Z 08012KT 11/M01 A3037 RMK A01 T01081014  RH  043%=      5-min Rain = 0
KREE 141930Z 08010KT 11/M02 A3037 RMK A01 T01061015  RH  043%=      5-min Rain = 0
KREE 141935Z 07008G15KT 11/M01 A3036 RMK A01 T01051014  RH  044%=      5-min Rain = 0
KREE 141940Z 06011G16KT 11/M02 A3036 RMK A01 T01081015  RH  043%=      5-min Rain = 0
KREE 141945Z 05008KT 11/M02 A3036 RMK A01 T01081015  RH  043%=      5-min Rain = 0
KREE 141950Z 05008KT 11/M01 A3036 RMK A01 T01101013  RH  043%=      5-min Rain = 0
KREE 141955Z 07008G14KT 11/M02 A3036 RMK A01 T01101015  RH  042%=      5-min Rain = 0
KREE 142000Z 06010KT 11/M02 A3036 RMK A01 T01081015  RH  043%=      5-min Rain = 0
KREE 142005Z 07009KT 11/M01 A3036 RMK A01 T01091014  RH  043%=      5-min Rain = 0
KREE 142010Z 06008G13KT 11/M02 A3036 RMK A01 T01101015  RH  042%=      5-min Rain = 0
KREE 142015Z 09008KT 11/M01 A3035 RMK A01 T01101014  RH  043%=      5-min Rain = 0
KREE 142020Z 06007G13KT 11/M02 A3035 RMK A01 T01111015  RH  042%=      5-min Rain = 0
KREE 142025Z 07008KT 11/M02 A3035 RMK A01 T01121015  RH  042%=      5-min Rain = 0
KREE 142030Z 08007G13KT 11/M01 A3035 RMK A01 T01111014  RH  042%=      5-min Rain = 0
KREE 142035Z 07007KT 11/M01 A3035 RMK A01 T01111014  RH  042%=      5-min Rain = 0
KREE 142040Z 05008KT 11/M02 A3035 RMK A01 T01121016  RH  041%=      5-min Rain = 0
KREE 142045Z 09007KT 11/M02 A3035 RMK A01 T01111015  RH  042%=      5-min Rain = 0
KREE 142050Z 08003KT 11/M02 A3035 RMK A01 T01081015  RH  043%=      5-min Rain = 0
KREE 142055Z 03006KT 11/M01 A3035 RMK A01 T01131014  RH  042%=      5-min Rain = 0
KREE 142100Z 05005G11KT 12/M01 A3035 RMK A01 T01161013  RH  041%=      5-min Rain = 0
KREE 142105Z 06006G11KT 11/M02 A3035 RMK A01 T01131015  RH  041%=      5-min Rain = 0
KREE 142110Z 10006KT 11/M02 A3035 RMK A01 T01131015  RH  042%=      5-min Rain = 0
KREE 142115Z 07009KT 11/M02 A3035 RMK A01 T01131015  RH  041%=      5-min Rain = 0
KREE 142120Z 07009KT 11/M02 A3035 RMK A01 T01111016  RH  041%=      5-min Rain = 0
KREE 142125Z 08008G13KT 11/M02 A3035 RMK A01 T01121015  RH  042%=      5-min Rain = 0
KREE 142130Z 07007KT 11/M02 A3035 RMK A01 T01131015  RH  042%=      5-min Rain = 0
KREE 142135Z 09008KT 11/M02 A3035 RMK A01 T01131015  RH  041%=      5-min Rain = 0
KREE 142140Z 06008KT 11/M02 A3035 RMK A01 T01141016  RH  041%=      5-min Rain = 0
KREE 142145Z 06006G11KT 12/M01 A3035 RMK A01 T01161014  RH  041%=      5-min Rain = 0
KREE 142150Z 07007G12KT 11/M02 A3035 RMK A01 T01141016  RH  041%=      5-min Rain = 0
KREE 142155Z 08008KT 12/M02 A3035 RMK A01 T01161015  RH  041%=      5-min Rain = 0
KREE 142200Z 07006KT 11/M02 A3035 RMK A01 T01131015  RH  041%=      5-min Rain = 0
KREE 142205Z 07007G14KT 12/M01 A3035 RMK A01 T01161014  RH  041%=      5-min Rain = 0
KREE 142210Z 06007KT 11/M02 A3035 RMK A01 T01131017  RH  041%=      5-min Rain = 0
KREE 142215Z 08003KT 11/M02 A3035 RMK A01 T01131016  RH  041%=      5-min Rain = 0
KREE 142220Z 09006KT 11/M02 A3035 RMK A01 T01141016  RH  041%=      5-min Rain = 0
KREE 142225Z 08008KT 11/M02 A3035 RMK A01 T01131016  RH  041%=      5-min Rain = 0
KREE 142230Z 07007KT 11/M02 A3035 RMK A01 T01121016  RH  041%=      5-min Rain = 0
KREE 142235Z 09006KT 11/M02 A3035 RMK A01 T01091017  RH  042%=      5-min Rain = 0
KREE 142240Z 09007KT 11/M02 A3035 RMK A01 T01091017  RH  042%=      5-min Rain = 0
KREE 142245Z 09005KT 11/M02 A3035 RMK A01 T01091018  RH  042%=      5-min Rain = 0
KREE 142250Z 07005KT 11/M02 A3035 RMK A01 T01091018  RH  042%=      5-min Rain = 0
KREE 142255Z 07006KT 11/M02 A3035 RMK A01 T01091017  RH  042%=      5-min Rain = 0
KREE 142300Z 09006KT 11/M02 A3036 RMK A01 T01071016  RH  042%=      5-min Rain = 0
KREE 142305Z 07005KT 11/M02 A3036 RMK A01 T01061017  RH  043%=      5-min Rain = 0
KREE 142310Z 07006KT 11/M02 A3036 RMK A01 T01051017  RH  043%=      5-min Rain = 0
KREE 142315Z 08006KT 10/M02 A3036 RMK A01 T01031016  RH  044%=      5-min Rain = 0
KREE 142320Z 09004KT 10/M02 A3036 RMK A01 T01011016  RH  044%=      5-min Rain = 0
KREE 142325Z 10004KT 10/M02 A3036 RMK A01 T00991016  RH  045%=      5-min Rain = 0
KREE 142330Z 10005KT 10/M02 A3036 RMK A01 T00961015  RH  046%=      5-min Rain = 0
KREE 142335Z 10005KT 09/M02 A3036 RMK A01 T00921015  RH  048%=      5-min Rain = 0
KREE 142340Z 10004KT 09/M02 A3036 RMK A01 T00881015  RH  049%=      5-min Rain = 0
KREE 142345Z 11005KT 08/M02 A3037 RMK A01 T00841015  RH  050%=      5-min Rain = 0
KREE 142350Z 11004KT 08/M02 A3037 RMK A01 T00811015  RH  051%=      5-min Rain = 0
KREE 142355Z 11004KT 08/M02 A3037 RMK A01 T00801016  RH  051%=      5-min Rain = 0
KREE 150000Z 11003KT 08/M02 A3037 RMK A01 T00801016  RH  051%=      5-min Rain = 0
KREE 150005Z 11003KT 08/M02 A3037 RMK A01 T00801016  RH  051%=      5-min Rain = 0
KREE 150010Z 12003KT 08/M02 A3037 RMK A01 T00801017  RH  051%=      5-min Rain = 0
KREE 150015Z 11003KT 08/M02 A3037 RMK A01 T00801017  RH  051%=      5-min Rain = 0
KREE 150020Z 11004KT 08/M02 A3038 RMK A01 T00781018  RH  051%=      5-min Rain = 0
KREE 150025Z 11004KT 08/M02 A3038 RMK A01 T00771017  RH  052%=      5-min Rain = 0
KREE 150030Z 12004KT 08/M02 A3038 RMK A01 T00761017  RH  052%=      5-min Rain = 0
KREE 150035Z 12004KT 07/M02 A3038 RMK A01 T00731017  RH  053%=      5-min Rain = 0
KREE 150040Z 11004KT 07/M02 A3038 RMK A01 T00721017  RH  054%=      5-min Rain = 0
KREE 150045Z 11004KT 07/M02 A3039 RMK A01 T00711017  RH  054%=      5-min Rain = 0
KREE 150050Z 12004KT 07/M02 A3039 RMK A01 T00681018  RH  055%=      5-min Rain = 0
KREE 150055Z 12004KT 06/M02 A3039 RMK A01 T00641018  RH  056%=      5-min Rain = 0
KREE 150100Z 11004KT 06/M02 A3039 RMK A01 T00621018  RH  057%=      5-min Rain = 0
KREE 150105Z 12003KT 06/M02 A3039 RMK A01 T00611019  RH  057%=      5-min Rain = 0
KREE 150110Z 14002KT 06/M02 A3039 RMK A01 T00571021  RH  058%=      5-min Rain = 0
KREE 150115Z 16002KT 05/M02 A3039 RMK A01 T00541021  RH  059%=      5-min Rain = 0
KREE 150120Z 17002KT 06/M02 A304 RMK A01 T00591019  RH  058%=      5-min Rain = 0
KREE 150125Z 17002KT 06/M02 A304 RMK A01 T00621018  RH  057%=      5-min Rain = 0
KREE 150130Z 15003KT 07/M02 A304 RMK A01 T00661018  RH  056%=      5-min Rain = 0
KREE 150135Z 16002KT 07/M02 A304 RMK A01 T00661018  RH  055%=      5-min Rain = 0
KREE 150140Z 17003KT 07/M02 A304 RMK A01 T00651018  RH  056%=      5-min Rain = 0
KREE 150145Z 17003KT 06/M02 A304 RMK A01 T00621020  RH  056%=      5-min Rain = 0
KREE 150150Z 16004KT 06/M02 A304 RMK A01 T00581020  RH  058%=      5-min Rain = 0
KREE 150155Z 16003KT 06/M02 A304 RMK A01 T00561021  RH  059%=      5-min Rain = 0
KREE 150200Z 17003KT 05/M02 A304 RMK A01 T00541020  RH  059%=      5-min Rain = 0
KREE 150205Z 17003KT 06/M02 A304 RMK A01 T00561019  RH  059%=      5-min Rain = 0
KREE 150210Z 17003KT 05/M02 A304 RMK A01 T00541020  RH  060%=      5-min Rain = 0
KREE 150215Z 17003KT 05/M02 A3041 RMK A01 T00511020  RH  061%=      5-min Rain = 0
KREE 150220Z 17004KT 05/M02 A3041 RMK A01 T00491021  RH  061%=      5-min Rain = 0
KREE 150225Z 17004KT 05/M02 A3041 RMK A01 T00501020  RH  061%=      5-min Rain = 0
KREE 150230Z 17004KT 05/M02 A3041 RMK A01 T00491021  RH  061%=      5-min Rain = 0
KREE 150235Z 16004KT 05/M02 A3041 RMK A01 T00461020  RH  063%=      5-min Rain = 0
KREE 150240Z 16004KT 05/M02 A3041 RMK A01 T00461020  RH  063%=      5-min Rain = 0
KREE 150245Z 17004KT 04/M02 A3041 RMK A01 T00431021  RH  063%=      5-min Rain = 0
KREE 150250Z 16004KT 04/M02 A3041 RMK A01 T00401021  RH  065%=      5-min Rain = 0
KREE 150255Z 16004KT 04/M02 A3041 RMK A01 T00411021  RH  065%=      5-min Rain = 0
KREE 150300Z 17004KT 04/M02 A3041 RMK A01 T00421020  RH  065%=      5-min Rain = 0
KREE 150305Z 16004KT 04/M02 A3041 RMK A01 T00441019  RH  065%=      5-min Rain = 0
KREE 150310Z 17004KT 04/M02 A3041 RMK A01 T00431019  RH  065%=      5-min Rain = 0
KREE 150315Z 16005KT 04/M02 A3042 RMK A01 T00411020  RH  065%=      5-min Rain = 0
KREE 150320Z 17004KT 04/M02 A3042 RMK A01 T00381020  RH  066%=      5-min Rain = 0
KREE 150325Z 17004KT 04/M02 A3042 RMK A01 T00391018  RH  067%=      5-min Rain = 0
KREE 150330Z 17004KT 04/M02 A3042 RMK A01 T00381021  RH  066%=      5-min Rain = 0
KREE 150335Z 17004KT 04/M02 A3042 RMK A01 T00361020  RH  067%=      5-min Rain = 0
KREE 150340Z 16004KT 04/M02 A3042 RMK A01 T00381019  RH  067%=      5-min Rain = 0
KREE 150345Z 15005KT 04/M02 A3042 RMK A01 T00371020  RH  067%=      5-min Rain = 0
KREE 150350Z 15005KT 04/M02 A3042 RMK A01 T00361020  RH  068%=      5-min Rain = 0
KREE 150355Z 15005KT 04/M02 A3042 RMK A01 T00351019  RH  068%=      5-min Rain = 0
KREE 150400Z 16005KT 04/M02 A3042 RMK A01 T00351019  RH  069%=      5-min Rain = 0
KREE 150405Z 17005KT 04/M02 A3042 RMK A01 T00351018  RH  069%=      5-min Rain = 0
KREE 150410Z 18004KT 03/M02 A3042 RMK A01 T00311022  RH  069%=      5-min Rain = 0
KREE 150415Z 19004KT 02/M03 A3043 RMK A01 T00221025  RH  072%=      5-min Rain = 0
KREE 150420Z 20004KT 01/M03 A3043 RMK A01 T00131029  RH  074%=      5-min Rain = 0
KREE 150425Z 20005KT 01/M03 A3043 RMK A01 T00111026  RH  077%=      5-min Rain = 0
KREE 150430Z 20005KT 01/M03 A3043 RMK A01 T00101027  RH  078%=      5-min Rain = 0
KREE 150435Z 19006KT 01/M03 A3043 RMK A01 T00101025  RH  078%=      5-min Rain = 0
KREE 150440Z 19006KT 01/M03 A3043 RMK A01 T00101026  RH  077%=      5-min Rain = 0
KREE 150445Z 19005KT 01/M03 A3043 RMK A01 T00111026  RH  077%=      5-min Rain = 0
KREE 150450Z 19005KT 01/M03 A3043 RMK A01 T00101026  RH  078%=      5-min Rain = 0
KREE 150455Z 19005KT 01/M03 A3043 RMK A01 T00111026  RH  077%=      5-min Rain = 0
KREE 150500Z 20004KT 01/M03 A3043 RMK A01 T00061030  RH  078%=      5-min Rain = 0
KREE 150505Z 21004KT 00/M03 A3043 RMK A01 T00031030  RH  079%=      5-min Rain = 0
KREE 150510Z 21004KT 00/M03 A3043 RMK A01 T00021029  RH  081%=      5-min Rain = 0
KREE 150515Z 21005KT 00/M03 A3043 RMK A01 T00041026  RH  081%=      5-min Rain = 0
KREE 150520Z 21005KT 00/M03 A3043 RMK A01 T00031028  RH  081%=      5-min Rain = 0
KREE 150525Z 20005KT 00/M03 A3043 RMK A01 T00031027  RH  081%=      5-min Rain = 0
KREE 150530Z 20005KT 01/M03 A3043 RMK A01 T00061025  RH  081%=      5-min Rain = 0
KREE 150535Z 21005KT 01/M03 A3043 RMK A01 T00081025  RH  079%=      5-min Rain = 0
KREE 150540Z 21005KT 01/M03 A3043 RMK A01 T00061027  RH  080%=      5-min Rain = 0
KREE 150545Z 21005KT 00/M03 A3043 RMK A01 T00031028  RH  080%=      5-min Rain = 0
KREE 150550Z 20005KT 00/M03 A3043 RMK A01 T00041026  RH  081%=      5-min Rain = 0
KREE 150555Z 21005KT 00/M03 A3043 RMK A01 T00031028  RH  081%=      5-min Rain = 0

Page generated in 0.0089 seconds.